createdAt,value
2019-03-31T00:00:15.083Z,8.80
2019-03-31T00:01:15.113Z,8.00
2019-03-31T00:02:15.140Z,8.50
2019-03-31T00:03:15.168Z,7.80
2019-03-31T00:04:15.196Z,8.20
2019-03-31T00:05:15.230Z,10.80
2019-03-31T00:06:15.254Z,8.60
2019-03-31T00:07:15.281Z,7.30
2019-03-31T00:08:15.310Z,8.00
2019-03-31T00:09:15.336Z,7.60
2019-03-31T00:10:15.365Z,7.50
2019-03-31T00:11:15.394Z,7.40
2019-03-31T00:12:15.422Z,8.10
2019-03-31T00:13:15.450Z,7.50
2019-03-31T00:14:15.481Z,7.10
2019-03-31T00:15:15.506Z,7.70
2019-03-31T00:16:15.533Z,7.10
2019-03-31T00:17:15.562Z,8.20
2019-03-31T00:18:15.590Z,8.50
2019-03-31T00:19:15.621Z,11.20
2019-03-31T00:20:15.647Z,8.20
2019-03-31T00:21:15.674Z,13.70
2019-03-31T00:22:15.704Z,9.80
2019-03-31T00:23:15.731Z,8.20
2019-03-31T00:24:15.758Z,10.00
2019-03-31T00:25:15.786Z,9.40
2019-03-31T00:26:15.817Z,9.50
2019-03-31T00:27:15.843Z,10.70
2019-03-31T00:28:15.871Z,8.00
2019-03-31T00:29:15.899Z,8.50
2019-03-31T00:30:15.927Z,11.60
2019-03-31T00:31:21.977Z,8.60
2019-03-31T00:32:15.984Z,8.50
2019-03-31T00:33:16.013Z,9.80
2019-03-31T00:34:16.039Z,8.70
2019-03-31T00:35:16.070Z,9.70
2019-03-31T00:36:16.095Z,8.80
2019-03-31T00:37:16.123Z,8.50
2019-03-31T00:38:16.203Z,7.80
2019-03-31T00:39:16.179Z,8.10
2019-03-31T00:40:16.207Z,7.90
2019-03-31T00:41:16.236Z,7.50
2019-03-31T00:42:16.263Z,8.30
2019-03-31T00:43:16.292Z,11.50
2019-03-31T00:44:16.319Z,8.20
2019-03-31T00:45:16.347Z,7.60
2019-03-31T00:46:16.380Z,7.80
2019-03-31T00:47:16.406Z,7.00
2019-03-31T00:48:16.431Z,8.30
2019-03-31T00:49:16.459Z,8.30
2019-03-31T00:50:16.487Z,7.60
2019-03-31T00:51:16.516Z,8.40
2019-03-31T00:52:16.543Z,8.40
2019-03-31T00:53:16.570Z,8.00
2019-03-31T00:54:16.599Z,10.40
2019-03-31T00:55:16.628Z,8.80
2019-03-31T00:56:16.655Z,10.10
2019-03-31T00:57:16.682Z,8.20
2019-03-31T00:58:16.711Z,7.70
2019-03-31T00:59:16.740Z,7.90
2019-03-31T01:00:19.970Z,7.30
2019-03-31T01:01:16.794Z,8.70
2019-03-31T01:02:16.821Z,8.80
2019-03-31T01:03:16.851Z,8.30
2019-03-31T01:04:16.876Z,8.10
2019-03-31T01:05:16.904Z,10.00
2019-03-31T01:06:16.932Z,8.30
2019-03-31T01:07:16.963Z,8.80
2019-03-31T01:08:16.989Z,7.60
2019-03-31T01:09:17.016Z,7.70
2019-03-31T01:10:17.043Z,10.80
2019-03-31T01:11:17.073Z,9.40
2019-03-31T01:12:17.098Z,8.20
2019-03-31T01:13:17.127Z,8.40
2019-03-31T01:14:17.156Z,7.50
2019-03-31T01:15:17.183Z,8.00
2019-03-31T01:16:17.210Z,7.90
2019-03-31T01:17:18.793Z,7.90
2019-03-31T01:18:17.265Z,9.00
2019-03-31T01:19:17.293Z,8.70
2019-03-31T01:20:17.320Z,7.60
2019-03-31T01:21:17.348Z,8.60
2019-03-31T01:22:17.375Z,7.80
2019-03-31T01:23:17.403Z,8.20
2019-03-31T01:24:17.492Z,7.60
2019-03-31T01:25:17.465Z,7.40
2019-03-31T01:26:17.487Z,8.30
2019-03-31T01:27:17.513Z,7.60
2019-03-31T01:28:17.544Z,10.50
2019-03-31T01:29:17.569Z,7.50
2019-03-31T01:30:17.597Z,8.70
2019-03-31T01:31:17.624Z,8.20
2019-03-31T01:32:17.652Z,8.10
2019-03-31T01:33:17.678Z,9.20
2019-03-31T01:34:17.909Z,9.60
2019-03-31T01:35:17.734Z,8.90
2019-03-31T01:36:17.760Z,8.40
2019-03-31T01:37:20.131Z,10.60
2019-03-31T01:38:17.816Z,12.30
2019-03-31T01:39:17.844Z,7.30
2019-03-31T01:40:17.875Z,7.20
2019-03-31T01:41:18.227Z,7.90
2019-03-31T01:42:17.926Z,9.80
2019-03-31T01:43:17.954Z,7.50
2019-03-31T01:44:17.980Z,9.10
2019-03-31T01:45:18.008Z,7.80
2019-03-31T01:46:18.036Z,8.30
2019-03-31T01:47:18.101Z,7.50
2019-03-31T01:48:18.118Z,8.60
2019-03-31T01:49:18.118Z,8.00
2019-03-31T01:50:18.147Z,13.40
2019-03-31T01:51:18.174Z,8.40
2019-03-31T01:52:18.200Z,7.30
2019-03-31T01:53:18.229Z,8.00
2019-03-31T01:54:18.254Z,8.40
2019-03-31T01:55:18.283Z,7.90
2019-03-31T01:56:18.310Z,7.80
2019-03-31T01:57:18.337Z,8.40
2019-03-31T01:58:18.365Z,8.50
2019-03-31T01:59:18.393Z,7.90
2019-03-31T02:00:18.422Z,8.60
2019-03-31T02:01:18.448Z,8.20
2019-03-31T02:02:18.474Z,8.20
2019-03-31T02:03:18.502Z,9.30
2019-03-31T02:04:18.529Z,7.60
2019-03-31T02:05:18.555Z,10.40
2019-03-31T02:06:18.584Z,7.80
2019-03-31T02:07:18.610Z,8.00
2019-03-31T02:08:18.644Z,7.40
2019-03-31T02:09:18.665Z,7.70
2019-03-31T02:10:18.692Z,7.60
2019-03-31T02:11:18.719Z,7.00
2019-03-31T02:12:18.749Z,8.20
2019-03-31T02:13:18.774Z,8.00
2019-03-31T02:14:18.806Z,8.70
2019-03-31T02:15:18.828Z,6.90
2019-03-31T02:16:18.856Z,7.50
2019-03-31T02:17:18.883Z,10.80
2019-03-31T02:18:18.910Z,7.10
2019-03-31T02:19:18.938Z,8.00
2019-03-31T02:20:18.964Z,7.30
2019-03-31T02:21:18.993Z,7.60
2019-03-31T02:22:19.020Z,7.40
2019-03-31T02:23:19.047Z,7.50
2019-03-31T02:24:19.073Z,7.70
2019-03-31T02:25:19.103Z,7.30
2019-03-31T02:26:19.129Z,7.50
2019-03-31T02:27:19.156Z,7.80
2019-03-31T02:28:19.186Z,7.50
2019-03-31T02:29:19.211Z,10.00
2019-03-31T02:30:19.238Z,8.00
2019-03-31T02:31:19.266Z,9.70
2019-03-31T02:32:24.109Z,6.80
2019-03-31T02:33:19.320Z,7.60
2019-03-31T02:34:19.365Z,7.20
2019-03-31T02:35:19.374Z,7.10
2019-03-31T02:36:19.401Z,6.70
2019-03-31T02:37:19.431Z,7.00
2019-03-31T02:38:19.459Z,7.10
2019-03-31T02:39:19.484Z,6.90
2019-03-31T02:40:19.510Z,7.30
2019-03-31T02:41:19.547Z,7.50
2019-03-31T02:42:19.564Z,7.00
2019-03-31T02:43:19.593Z,10.40
2019-03-31T02:44:19.618Z,8.00
2019-03-31T02:45:19.646Z,7.90
2019-03-31T02:46:19.674Z,7.30
2019-03-31T02:47:19.700Z,7.10
2019-03-31T02:48:19.726Z,7.10
2019-03-31T02:49:19.754Z,7.20
2019-03-31T02:50:19.781Z,7.20
2019-03-31T02:51:19.974Z,6.20
2019-03-31T02:52:19.834Z,6.70
2019-03-31T02:53:19.862Z,7.30
2019-03-31T02:54:19.898Z,8.30
2019-03-31T02:55:19.928Z,6.70
2019-03-31T02:56:19.943Z,6.90
2019-03-31T02:57:19.971Z,7.80
2019-03-31T02:58:19.999Z,7.00
2019-03-31T02:59:20.027Z,6.40
2019-03-31T03:00:20.053Z,7.40
2019-03-31T03:01:20.080Z,7.60
2019-03-31T03:02:20.107Z,7.30
2019-03-31T03:03:20.135Z,7.30
2019-03-31T03:04:20.161Z,7.50
2019-03-31T03:05:20.543Z,7.10
2019-03-31T03:06:20.235Z,7.90
2019-03-31T03:07:20.243Z,7.10
2019-03-31T03:08:20.269Z,7.00
2019-03-31T03:09:20.299Z,8.80
2019-03-31T03:10:20.324Z,9.30
2019-03-31T03:11:20.352Z,7.10
2019-03-31T03:12:20.377Z,7.30
2019-03-31T03:13:20.405Z,9.50
2019-03-31T03:14:20.439Z,7.30
2019-03-31T03:15:20.464Z,6.60
2019-03-31T03:16:20.486Z,7.30
2019-03-31T03:17:20.515Z,7.30
2019-03-31T03:18:20.546Z,7.20
2019-03-31T03:19:20.569Z,7.30
2019-03-31T03:20:20.602Z,7.10
2019-03-31T03:21:24.165Z,8.10
2019-03-31T03:22:20.710Z,8.20
2019-03-31T03:23:20.748Z,6.80
2019-03-31T03:24:20.709Z,9.60
2019-03-31T03:25:20.735Z,6.80
2019-03-31T03:26:20.761Z,7.30
2019-03-31T03:27:20.784Z,8.20
2019-03-31T03:28:20.811Z,7.40
2019-03-31T03:29:20.839Z,7.90
2019-03-31T03:30:21.085Z,8.40
2019-03-31T03:31:20.961Z,8.10
2019-03-31T03:32:20.920Z,8.00
2019-03-31T03:33:21.176Z,7.30
2019-03-31T03:34:20.978Z,7.40
2019-03-31T03:35:21.000Z,7.70
2019-03-31T03:36:21.029Z,8.10
2019-03-31T03:37:21.190Z,7.00
2019-03-31T03:38:21.082Z,7.40
2019-03-31T03:39:21.108Z,7.90
2019-03-31T03:40:21.136Z,7.30
2019-03-31T03:41:21.164Z,9.10
2019-03-31T03:42:21.195Z,7.30
2019-03-31T03:43:21.218Z,7.50
2019-03-31T03:44:21.254Z,6.80
2019-03-31T03:45:21.275Z,6.80
2019-03-31T03:46:21.301Z,7.10
2019-03-31T03:47:21.344Z,9.40
2019-03-31T03:48:21.351Z,7.70
2019-03-31T03:49:21.378Z,7.40
2019-03-31T03:50:21.404Z,7.20
2019-03-31T03:51:21.458Z,6.90
2019-03-31T03:52:21.470Z,7.00
2019-03-31T03:53:21.581Z,6.70
2019-03-31T03:54:21.513Z,8.10
2019-03-31T03:55:21.542Z,7.10
2019-03-31T03:56:21.568Z,7.40
2019-03-31T03:57:21.594Z,7.20
2019-03-31T03:58:21.622Z,7.40
2019-03-31T03:59:21.648Z,6.90
2019-03-31T04:00:21.674Z,7.30
2019-03-31T04:01:21.702Z,7.40
2019-03-31T04:02:21.738Z,11.60
2019-03-31T04:03:29.856Z,7.30
2019-03-31T04:04:21.784Z,8.10
2019-03-31T04:05:21.860Z,7.60
2019-03-31T04:06:21.838Z,7.40
2019-03-31T04:07:21.863Z,6.90
2019-03-31T04:08:21.902Z,6.90
2019-03-31T04:09:21.919Z,7.40
2019-03-31T04:10:21.951Z,7.90
2019-03-31T04:11:22.185Z,6.80
2019-03-31T04:12:22.325Z,7.20
2019-03-31T04:13:22.023Z,8.00
2019-03-31T04:14:22.051Z,7.00
2019-03-31T04:15:22.090Z,7.50
2019-03-31T04:16:22.104Z,7.80
2019-03-31T04:17:22.136Z,7.40
2019-03-31T04:18:22.165Z,7.50
2019-03-31T04:19:22.185Z,7.40
2019-03-31T04:20:22.211Z,7.30
2019-03-31T04:21:22.239Z,8.00
2019-03-31T04:22:22.266Z,7.90
2019-03-31T04:23:22.291Z,7.70
2019-03-31T04:24:22.317Z,7.60
2019-03-31T04:25:22.345Z,8.50
2019-03-31T04:26:22.371Z,7.40
2019-03-31T04:27:22.396Z,8.00
2019-03-31T04:28:22.424Z,8.70
2019-03-31T04:29:22.451Z,8.80
2019-03-31T04:30:22.494Z,7.50
2019-03-31T04:31:22.669Z,8.10
2019-03-31T04:32:22.631Z,8.10
2019-03-31T04:33:22.558Z,9.10
2019-03-31T04:34:22.584Z,7.30
2019-03-31T04:35:22.611Z,7.20
2019-03-31T04:36:22.636Z,9.80
2019-03-31T04:37:22.675Z,12.90
2019-03-31T04:38:22.699Z,7.70
2019-03-31T04:39:22.722Z,8.20
2019-03-31T04:40:22.743Z,8.70
2019-03-31T04:41:22.770Z,8.10
2019-03-31T04:42:22.797Z,8.20
2019-03-31T04:43:22.827Z,11.00
2019-03-31T04:44:22.850Z,8.30
2019-03-31T04:45:22.876Z,8.40
2019-03-31T04:46:22.907Z,9.20
2019-03-31T04:47:22.930Z,7.90
2019-03-31T04:48:22.962Z,8.80
2019-03-31T04:49:22.983Z,7.80
2019-03-31T04:50:23.009Z,8.60
2019-03-31T04:51:23.036Z,8.00
2019-03-31T04:52:23.061Z,8.80
2019-03-31T04:53:23.088Z,8.50
2019-03-31T04:54:23.114Z,8.50
2019-03-31T04:55:23.141Z,9.20
2019-03-31T04:56:23.167Z,8.20
2019-03-31T04:57:23.196Z,10.70
2019-03-31T04:58:23.220Z,8.00
2019-03-31T04:59:23.248Z,7.90
2019-03-31T05:00:23.273Z,8.00
2019-03-31T05:01:23.304Z,8.40
2019-03-31T05:02:26.878Z,8.00
2019-03-31T05:03:23.352Z,8.80
2019-03-31T05:04:23.382Z,8.30
2019-03-31T05:05:23.404Z,8.70
2019-03-31T05:06:23.432Z,7.90
2019-03-31T05:07:23.458Z,7.90
2019-03-31T05:08:23.483Z,8.00
2019-03-31T05:09:23.512Z,8.10
2019-03-31T05:10:23.538Z,8.20
2019-03-31T05:11:23.564Z,8.30
2019-03-31T05:12:23.591Z,8.20
2019-03-31T05:13:23.616Z,10.00
2019-03-31T05:14:23.644Z,7.00
2019-03-31T05:15:23.669Z,8.30
2019-03-31T05:16:23.696Z,7.90
2019-03-31T05:17:23.722Z,11.80
2019-03-31T05:18:23.754Z,8.20
2019-03-31T05:19:23.780Z,7.90
2019-03-31T05:20:23.799Z,8.00
2019-03-31T05:21:23.828Z,8.10
2019-03-31T05:22:23.853Z,8.50
2019-03-31T05:23:23.880Z,12.70
2019-03-31T05:24:23.905Z,12.20
2019-03-31T05:25:23.932Z,8.60
2019-03-31T05:26:23.960Z,8.80
2019-03-31T05:27:23.985Z,9.00
2019-03-31T05:28:24.013Z,10.00
2019-03-31T05:29:24.038Z,11.00
2019-03-31T05:30:24.064Z,11.50
2019-03-31T05:31:24.091Z,10.20
2019-03-31T05:32:24.116Z,9.70
2019-03-31T05:33:24.143Z,9.80
2019-03-31T05:34:24.173Z,11.50
2019-03-31T05:35:26.912Z,9.20
2019-03-31T05:36:24.222Z,9.60
2019-03-31T05:37:24.248Z,9.20
2019-03-31T05:38:24.279Z,9.40
2019-03-31T05:39:24.303Z,9.50
2019-03-31T05:40:24.330Z,9.10
2019-03-31T05:41:24.354Z,10.40
2019-03-31T05:42:24.382Z,9.70
2019-03-31T05:43:24.411Z,10.70
2019-03-31T05:44:24.432Z,8.80
2019-03-31T05:45:24.461Z,9.20
2019-03-31T05:46:24.489Z,9.10
2019-03-31T05:47:24.512Z,9.20
2019-03-31T05:48:24.539Z,9.60
2019-03-31T05:49:24.566Z,9.20
2019-03-31T05:50:24.593Z,8.90
2019-03-31T05:51:24.619Z,9.90
2019-03-31T05:52:24.643Z,9.20
2019-03-31T05:53:24.670Z,9.40
2019-03-31T05:54:24.696Z,11.00
2019-03-31T05:55:24.724Z,11.70
2019-03-31T05:56:24.749Z,9.50
2019-03-31T05:57:24.775Z,10.00
2019-03-31T05:58:24.809Z,10.60
2019-03-31T05:59:24.830Z,12.30
2019-03-31T06:00:24.856Z,10.20
2019-03-31T06:01:24.882Z,10.90
2019-03-31T06:02:24.908Z,13.50
2019-03-31T06:03:24.936Z,10.10
2019-03-31T06:04:33.113Z,12.30
2019-03-31T06:05:24.988Z,9.90
2019-03-31T06:06:25.015Z,10.10
2019-03-31T06:07:25.996Z,10.50
2019-03-31T06:08:25.067Z,10.60
2019-03-31T06:09:25.093Z,9.60
2019-03-31T06:10:25.120Z,16.90
2019-03-31T06:11:25.147Z,11.40
2019-03-31T06:12:25.173Z,11.00
2019-03-31T06:13:25.200Z,13.10
2019-03-31T06:14:25.226Z,11.30
2019-03-31T06:15:25.254Z,10.30
2019-03-31T06:16:25.303Z,13.10
2019-03-31T06:17:25.508Z,9.80
2019-03-31T06:18:25.537Z,12.10
2019-03-31T06:22:25.869Z,11.40
2019-03-31T06:23:25.470Z,10.90
2019-03-31T06:24:25.494Z,11.20
2019-03-31T06:25:25.532Z,14.20
2019-03-31T06:26:25.549Z,11.10
2019-03-31T06:27:25.577Z,11.60
2019-03-31T06:28:25.602Z,13.90
2019-03-31T06:29:25.646Z,11.30
2019-03-31T06:30:25.658Z,13.20
2019-03-31T06:31:25.684Z,13.30
2019-03-31T06:32:25.710Z,12.20
2019-03-31T06:33:25.739Z,12.30
2019-03-31T06:34:25.767Z,22.10
2019-03-31T06:35:25.793Z,10.90
2019-03-31T06:36:25.820Z,14.30
2019-03-31T06:37:25.847Z,18.20
2019-03-31T06:38:25.874Z,13.20
2019-03-31T06:39:25.902Z,15.80
2019-03-31T06:40:25.929Z,12.60
2019-03-31T06:41:25.957Z,13.90
2019-03-31T06:42:25.984Z,14.10
2019-03-31T06:43:26.026Z,13.50
2019-03-31T06:44:26.038Z,11.10
2019-03-31T06:45:26.066Z,11.40
2019-03-31T06:46:26.097Z,11.10
2019-03-31T06:47:26.123Z,13.70
2019-03-31T06:48:26.149Z,11.40
2019-03-31T06:49:26.177Z,11.70
2019-03-31T06:50:26.206Z,12.00
2019-03-31T06:51:26.235Z,11.90
2019-03-31T06:52:26.261Z,12.40
2019-03-31T06:53:26.289Z,11.40
2019-03-31T06:54:26.316Z,13.50
2019-03-31T06:55:26.345Z,11.40
2019-03-31T06:56:26.372Z,14.80
2019-03-31T06:57:26.399Z,11.40
2019-03-31T06:58:26.430Z,11.00
2019-03-31T06:59:26.458Z,11.90
2019-03-31T07:00:26.482Z,13.40
2019-03-31T07:01:26.512Z,12.20
2019-03-31T07:02:26.539Z,12.10
2019-03-31T07:03:26.575Z,11.80
2019-03-31T07:04:26.595Z,14.50
2019-03-31T07:05:26.624Z,12.70
2019-03-31T07:06:26.652Z,15.00
2019-03-31T07:07:26.679Z,13.50
2019-03-31T07:08:26.713Z,19.20
2019-03-31T07:09:26.737Z,15.70
2019-03-31T07:10:26.764Z,12.20
2019-03-31T07:11:26.793Z,12.40
2019-03-31T07:12:26.822Z,11.80
2019-03-31T07:13:26.849Z,11.30
2019-03-31T07:14:26.879Z,11.00
2019-03-31T07:15:26.907Z,13.10
2019-03-31T07:16:26.937Z,11.90
2019-03-31T07:17:26.965Z,11.30
2019-03-31T07:18:26.993Z,13.50
2019-03-31T07:19:27.022Z,12.80
2019-03-31T07:20:27.053Z,13.60
2019-03-31T07:21:27.079Z,14.20
2019-03-31T07:22:27.108Z,12.30
2019-03-31T07:23:27.136Z,11.90
2019-03-31T07:24:27.165Z,12.50
2019-03-31T07:25:27.194Z,13.30
2019-03-31T07:26:27.223Z,14.40
2019-03-31T07:27:27.252Z,11.30
2019-03-31T07:28:27.280Z,10.20
2019-03-31T07:29:27.309Z,14.30
2019-03-31T07:30:27.340Z,11.50
2019-03-31T07:31:27.369Z,11.00
2019-03-31T07:32:27.397Z,10.80
2019-03-31T07:33:27.427Z,10.70
2019-03-31T07:34:27.456Z,10.50
2019-03-31T07:35:27.487Z,13.30
2019-03-31T07:36:27.514Z,10.00
2019-03-31T07:37:27.545Z,12.90
2019-03-31T07:38:38.400Z,10.20
2019-03-31T07:39:27.671Z,11.20
2019-03-31T07:40:27.721Z,10.60
2019-03-31T07:41:27.663Z,11.70
2019-03-31T07:42:27.829Z,10.50
2019-03-31T07:43:27.724Z,11.80
2019-03-31T07:44:27.754Z,9.60
2019-03-31T07:45:27.786Z,9.40
2019-03-31T07:46:27.815Z,9.50
2019-03-31T07:47:27.844Z,10.60
2019-03-31T07:48:27.873Z,10.60
2019-03-31T07:49:27.906Z,9.90
2019-03-31T07:50:28.393Z,10.10
2019-03-31T07:51:27.965Z,8.60
2019-03-31T07:52:27.994Z,15.70
2019-03-31T07:53:28.026Z,11.00
2019-03-31T07:54:28.056Z,10.80
2019-03-31T07:55:28.087Z,8.90
2019-03-31T07:56:28.119Z,9.20
2019-03-31T07:57:28.148Z,8.70
2019-03-31T07:58:28.190Z,8.80
2019-03-31T07:59:28.395Z,8.30
2019-03-31T08:00:28.241Z,8.70
2019-03-31T08:01:28.272Z,9.30
2019-03-31T08:02:28.304Z,10.00
2019-03-31T08:03:28.482Z,8.90
2019-03-31T08:04:28.366Z,9.80
2019-03-31T08:05:33.463Z,9.70
2019-03-31T08:06:28.426Z,9.50
2019-03-31T08:07:28.457Z,8.60
2019-03-31T08:08:28.488Z,9.50
2019-03-31T08:09:28.521Z,12.20
2019-03-31T08:10:28.554Z,8.80
2019-03-31T08:11:28.587Z,11.70
2019-03-31T08:12:28.617Z,9.30
2019-03-31T08:13:28.650Z,9.50
2019-03-31T08:14:28.681Z,13.30
2019-03-31T08:15:28.712Z,10.00
2019-03-31T08:16:28.744Z,12.80
2019-03-31T08:17:28.774Z,10.70
2019-03-31T08:18:28.810Z,10.00
2019-03-31T08:19:28.842Z,10.30
2019-03-31T08:20:28.875Z,10.50
2019-03-31T08:21:28.905Z,8.50
2019-03-31T08:22:28.939Z,8.90
2019-03-31T08:23:28.972Z,8.50
2019-03-31T08:24:29.003Z,10.30
2019-03-31T08:25:29.036Z,8.40
2019-03-31T08:26:29.070Z,9.20
2019-03-31T08:27:29.103Z,8.90
2019-03-31T08:28:29.138Z,9.20
2019-03-31T08:29:29.168Z,9.20
2019-03-31T08:30:29.202Z,12.10
2019-03-31T08:31:29.236Z,10.40
2019-03-31T08:32:29.266Z,12.90
2019-03-31T08:33:29.302Z,9.60
2019-03-31T08:34:29.335Z,10.30
2019-03-31T08:35:29.368Z,9.30
2019-03-31T08:36:29.401Z,15.40
2019-03-31T08:37:29.434Z,13.00
2019-03-31T08:38:29.468Z,12.50
2019-03-31T08:39:29.501Z,11.50
2019-03-31T08:40:29.534Z,11.60
2019-03-31T08:41:29.568Z,11.10
2019-03-31T08:42:29.602Z,12.60
2019-03-31T08:43:29.641Z,20.00
2019-03-31T08:44:29.670Z,12.90
2019-03-31T08:45:30.571Z,15.80
2019-03-31T08:46:29.737Z,10.50
2019-03-31T08:47:29.776Z,10.20
2019-03-31T08:48:29.804Z,13.20
2019-03-31T08:49:29.839Z,9.80
2019-03-31T08:50:29.874Z,10.40
2019-03-31T08:51:29.908Z,13.60
2019-03-31T08:52:29.940Z,11.40
2019-03-31T08:53:29.975Z,10.60
2019-03-31T08:54:30.009Z,12.60
2019-03-31T08:55:30.044Z,11.00
2019-03-31T08:56:30.077Z,13.80
2019-03-31T08:57:30.134Z,14.30
2019-03-31T08:58:30.146Z,11.30
2019-03-31T08:59:30.181Z,11.30
2019-03-31T09:00:30.221Z,9.50
2019-03-31T09:01:30.254Z,10.80
2019-03-31T09:02:30.283Z,10.50
2019-03-31T09:03:30.323Z,9.60
2019-03-31T09:04:30.356Z,11.00
2019-03-31T09:05:30.387Z,10.50
2019-03-31T09:06:30.422Z,10.90
2019-03-31T09:07:30.457Z,13.40
2019-03-31T09:08:30.491Z,15.50
2019-03-31T09:09:30.528Z,9.10
2019-03-31T09:10:30.563Z,13.60
2019-03-31T09:11:30.599Z,10.00
2019-03-31T09:12:30.636Z,10.20
2019-03-31T09:13:30.694Z,11.10
2019-03-31T09:14:31.518Z,10.30
2019-03-31T09:15:30.752Z,10.20
2019-03-31T09:16:30.782Z,9.70
2019-03-31T09:17:30.822Z,10.50
2019-03-31T09:18:30.858Z,12.00
2019-03-31T09:19:30.898Z,11.80
2019-03-31T09:20:30.935Z,10.50
2019-03-31T09:21:30.976Z,10.50
2019-03-31T09:22:31.014Z,9.80
2019-03-31T09:23:33.678Z,9.80
2019-03-31T09:24:31.115Z,10.60
2019-03-31T09:25:31.159Z,11.40
2019-03-31T09:26:31.173Z,9.90
2019-03-31T09:27:31.235Z,9.70
2019-03-31T09:28:31.253Z,10.00
2019-03-31T09:32:31.416Z,11.50
2019-03-31T09:33:31.481Z,12.00
2019-03-31T09:34:31.727Z,10.40
2019-03-31T09:35:31.543Z,10.60
2019-03-31T09:36:31.583Z,11.40
2019-03-31T09:37:31.624Z,10.70
2019-03-31T09:38:31.668Z,10.30
2019-03-31T09:39:31.710Z,11.10
2019-03-31T09:40:31.754Z,11.70
2019-03-31T09:41:31.795Z,11.20
2019-03-31T09:42:31.837Z,14.10
2019-03-31T09:43:31.883Z,10.70
2019-03-31T09:44:31.922Z,11.30
2019-03-31T09:45:31.970Z,11.00
2019-03-31T09:46:32.011Z,11.20
2019-03-31T09:47:32.052Z,11.80
2019-03-31T09:48:32.096Z,11.60
2019-03-31T09:49:32.137Z,11.40
2019-03-31T09:50:32.181Z,11.30
2019-03-31T09:51:32.227Z,11.40
2019-03-31T09:52:32.268Z,14.00
2019-03-31T09:53:32.312Z,12.10
2019-03-31T09:54:32.356Z,11.70
2019-03-31T09:55:32.401Z,10.90
2019-03-31T09:56:32.772Z,11.80
2019-03-31T09:57:32.515Z,11.00
2019-03-31T09:58:32.533Z,11.60
2019-03-31T09:59:32.603Z,11.60
2019-03-31T10:00:32.645Z,13.10
2019-03-31T10:01:32.667Z,13.10
2019-03-31T10:02:35.337Z,11.00
2019-03-31T10:03:32.756Z,12.60
2019-03-31T10:04:33.130Z,12.30
2019-03-31T10:05:32.869Z,11.20
2019-03-31T10:06:32.891Z,12.00
2019-03-31T10:07:32.946Z,11.00
2019-03-31T10:09:33.026Z,11.50
2019-03-31T10:10:33.074Z,12.00
2019-03-31T10:11:33.140Z,10.70
2019-03-31T10:12:33.160Z,11.00
2019-03-31T10:14:35.875Z,11.50
2019-03-31T10:15:33.299Z,12.10
2019-03-31T10:16:33.646Z,11.80
2019-03-31T10:17:33.390Z,15.70
2019-03-31T10:18:33.435Z,16.10
2019-03-31T10:19:33.484Z,12.20
2019-03-31T10:20:34.942Z,10.90
2019-03-31T10:21:33.595Z,11.20
2019-03-31T10:22:33.646Z,14.00
2019-03-31T10:25:59.581Z,12.10
2019-03-31T10:26:59.629Z,12.30
2019-03-31T10:28:00.003Z,12.00
2019-03-31T10:29:47.292Z,13.60
2019-03-31T10:30:47.427Z,12.20
2019-03-31T10:31:47.611Z,11.70
2019-03-31T10:32:47.509Z,12.70
2019-03-31T10:33:47.503Z,13.00
2019-03-31T10:34:47.526Z,12.10
2019-03-31T10:35:47.574Z,13.00
2019-03-31T10:36:47.622Z,12.00
2019-03-31T10:37:50.292Z,12.70
2019-03-31T10:38:47.717Z,13.10
2019-03-31T10:39:47.763Z,12.70
2019-03-31T10:40:47.811Z,13.80
2019-03-31T10:41:48.062Z,13.20
2019-03-31T10:42:47.929Z,15.60
2019-03-31T10:43:47.954Z,14.00
2019-03-31T10:44:48.002Z,14.70
2019-03-31T10:45:48.251Z,14.40
2019-03-31T10:49:13.271Z,13.40
2019-03-31T10:50:13.317Z,14.50
2019-03-31T10:51:13.365Z,17.00
2019-03-31T10:52:16.449Z,15.90
2019-03-31T10:53:13.462Z,13.90
2019-03-31T10:55:13.581Z,13.10
2019-03-31T10:56:13.634Z,15.10
2019-03-31T10:57:14.288Z,13.50
2019-03-31T10:58:14.034Z,15.70
2019-03-31T10:59:13.784Z,14.30
2019-03-31T11:00:16.450Z,14.00
2019-03-31T11:01:13.852Z,19.20
2019-03-31T11:04:14.001Z,15.00
2019-03-31T11:05:14.072Z,14.10
2019-03-31T11:06:15.035Z,15.00
2019-03-31T11:07:14.375Z,13.80
2019-03-31T11:09:14.246Z,14.30
2019-03-31T11:10:14.297Z,14.00
2019-03-31T11:11:14.346Z,13.90
2019-03-31T11:12:14.397Z,14.80
2019-03-31T11:13:14.445Z,14.70
2019-03-31T11:14:14.493Z,16.00
2019-03-31T11:15:14.544Z,15.60
2019-03-31T11:16:14.595Z,15.10
2019-03-31T11:17:14.644Z,16.80
2019-03-31T11:18:14.696Z,18.90
2019-03-31T11:19:14.746Z,15.20
2019-03-31T11:20:14.795Z,15.60
2019-03-31T11:21:14.844Z,17.60
2019-03-31T11:22:14.892Z,16.70
2019-03-31T11:23:14.942Z,17.70
2019-03-31T11:24:14.994Z,16.80
2019-03-31T11:25:21.156Z,17.20
2019-03-31T11:26:15.090Z,18.10
2019-03-31T11:27:15.142Z,16.70
2019-03-31T11:28:15.197Z,17.40
2019-03-31T11:29:15.250Z,17.00
2019-03-31T11:30:15.289Z,21.10
2019-03-31T11:31:17.993Z,19.90
2019-03-31T11:32:15.386Z,20.30
2019-03-31T11:33:15.436Z,19.00
2019-03-31T11:34:15.485Z,17.10
2019-03-31T11:35:15.535Z,20.00
2019-03-31T11:36:15.586Z,19.60
2019-03-31T11:37:15.632Z,17.20
2019-03-31T11:38:15.684Z,17.20
2019-03-31T11:39:16.484Z,18.60
2019-03-31T11:40:15.778Z,17.50
2019-03-31T11:41:15.828Z,18.70
2019-03-31T11:42:15.876Z,19.90
2019-03-31T11:43:15.926Z,17.70
2019-03-31T11:44:15.978Z,19.30
2019-03-31T11:45:16.028Z,20.20
2019-03-31T11:46:16.073Z,19.10
2019-03-31T11:47:16.123Z,18.20
2019-03-31T11:48:16.176Z,21.40
2019-03-31T11:49:16.220Z,18.20
2019-03-31T11:50:16.273Z,17.10
2019-03-31T11:51:16.319Z,20.40
2019-03-31T11:52:16.367Z,20.50
2019-03-31T11:53:16.419Z,18.60
2019-03-31T11:54:16.467Z,24.40
2019-03-31T11:55:16.517Z,20.40
2019-03-31T11:56:16.566Z,18.10
2019-03-31T11:57:17.641Z,17.50
2019-03-31T11:58:16.665Z,17.30
2019-03-31T11:59:16.715Z,18.00
2019-03-31T12:00:16.764Z,17.80
2019-03-31T12:01:16.813Z,16.10
2019-03-31T12:02:26.843Z,16.90
2019-03-31T12:03:16.912Z,17.00
2019-03-31T12:04:16.964Z,17.60
2019-03-31T12:05:17.017Z,17.30
2019-03-31T12:06:17.062Z,16.90
2019-03-31T12:07:27.870Z,16.70
2019-03-31T12:08:17.162Z,17.90
2019-03-31T12:09:17.212Z,17.50
2019-03-31T12:10:19.869Z,17.70
2019-03-31T12:11:17.312Z,17.70
2019-03-31T12:12:17.361Z,17.10
2019-03-31T12:13:17.412Z,17.60
2019-03-31T12:14:17.462Z,18.00
2019-03-31T12:15:17.511Z,19.50
2019-03-31T12:16:17.561Z,20.80
2019-03-31T12:17:17.610Z,20.80
2019-03-31T12:18:17.660Z,18.70
2019-03-31T12:19:17.710Z,18.70
2019-03-31T12:20:17.758Z,19.50
2019-03-31T12:21:17.807Z,20.70
2019-03-31T12:22:17.858Z,19.80
2019-03-31T12:23:17.907Z,18.30
2019-03-31T12:24:17.955Z,17.60
2019-03-31T12:25:19.912Z,18.40
2019-03-31T12:26:18.055Z,21.70
2019-03-31T12:27:18.106Z,21.00
2019-03-31T12:28:18.154Z,23.10
2019-03-31T12:29:18.205Z,18.20
2019-03-31T12:30:18.252Z,23.60
2019-03-31T12:31:18.303Z,18.40
2019-03-31T12:32:18.352Z,23.00
2019-03-31T12:33:18.400Z,19.40
2019-03-31T12:34:18.450Z,20.70
2019-03-31T12:35:18.539Z,23.30
2019-03-31T12:36:18.550Z,17.70
2019-03-31T12:37:18.597Z,18.90
2019-03-31T12:38:18.647Z,19.00
2019-03-31T12:39:18.701Z,19.60
2019-03-31T12:40:18.750Z,19.30
2019-03-31T12:41:18.795Z,23.00
2019-03-31T12:42:18.847Z,16.40
2019-03-31T12:43:18.893Z,19.40
2019-03-31T12:44:18.942Z,17.10
2019-03-31T12:45:18.992Z,18.60
2019-03-31T12:46:19.042Z,16.60
2019-03-31T12:47:19.090Z,16.00
2019-03-31T12:48:19.140Z,15.50
2019-03-31T12:49:19.189Z,15.40
2019-03-31T12:50:19.242Z,16.30
2019-03-31T12:51:19.373Z,15.50
2019-03-31T12:52:19.336Z,15.70
2019-03-31T12:53:19.388Z,15.60
2019-03-31T12:54:19.437Z,15.20
2019-03-31T12:55:19.489Z,14.70
2019-03-31T12:56:19.536Z,14.30
2019-03-31T12:57:19.662Z,19.00
2019-03-31T12:58:19.637Z,14.20
2019-03-31T12:59:19.686Z,13.80
2019-03-31T13:00:19.736Z,12.60
2019-03-31T13:01:19.786Z,13.40
2019-03-31T13:02:19.838Z,11.60
2019-03-31T13:03:19.888Z,11.70
2019-03-31T13:04:19.935Z,10.70
2019-03-31T13:05:19.988Z,10.80
2019-03-31T13:06:20.339Z,11.70
2019-03-31T13:07:20.092Z,11.00
2019-03-31T13:08:20.140Z,11.60
2019-03-31T13:09:20.191Z,11.70
2019-03-31T13:10:20.243Z,11.70
2019-03-31T13:11:20.292Z,15.10
2019-03-31T13:12:20.342Z,12.30
2019-03-31T13:13:20.408Z,11.60
2019-03-31T13:14:20.443Z,11.70
2019-03-31T13:15:20.493Z,11.70
2019-03-31T13:16:20.546Z,12.90
2019-03-31T13:17:20.593Z,12.10
2019-03-31T13:18:20.646Z,14.50
2019-03-31T13:19:20.694Z,16.10
2019-03-31T13:20:20.752Z,15.10
2019-03-31T13:21:20.793Z,14.60
2019-03-31T13:22:20.844Z,16.80